Terminal Aerodrome Forecast
Issued by NWS San Angelo, TX

Current Version | Previous Version | Text Only | Print | Product List | Glossary On
Versions: 1 2 3 4 5 6 7 8 9 10 11 12 13 14 15 16 17
031
FTUS44 KSJT 201355 AAB
TAFSJT
TAF AMD
KSJT 201355Z 2014/2112 21010KT 6SM BR SKC
     FM201500 21015G22KT P6SM SKC
     FM210000 19009KT P6SM SKC
     FM210900 20010KT P6SM OVC012=

USA.gov is the U.S. government's official web portal to all federal, state and local government web resources and services.